createdAt,value
2024-04-18T00:00:07.568Z,915.00
2024-04-18T00:01:07.711Z,915.00
2024-04-18T00:02:07.711Z,913.00
2024-04-18T00:03:07.766Z,911.00
2024-04-18T00:04:07.963Z,917.00
2024-04-18T00:05:07.954Z,912.00
2024-04-18T00:06:07.964Z,918.00
2024-04-18T00:07:08.087Z,912.00
2024-04-18T00:08:08.096Z,926.00
2024-04-18T00:09:08.162Z,901.00
2024-04-18T00:10:08.188Z,910.00
2024-04-18T00:11:08.398Z,907.00
2024-04-18T00:12:08.328Z,920.00
2024-04-18T00:13:08.372Z,906.00
2024-04-18T00:14:08.436Z,895.00
2024-04-18T00:15:08.490Z,913.00
2024-04-18T00:16:08.572Z,900.00
2024-04-18T00:17:08.635Z,896.00
2024-04-18T00:18:08.722Z,906.00
2024-04-18T00:19:08.738Z,904.00
2024-04-18T00:20:08.770Z,916.00
2024-04-18T00:21:08.836Z,909.00
2024-04-18T00:22:08.883Z,897.00
2024-04-18T00:23:08.946Z,900.00
2024-04-18T00:24:09.060Z,902.00
2024-04-18T00:25:09.047Z,900.00
2024-04-18T00:26:09.111Z,901.00
2024-04-18T00:27:09.184Z,895.00
2024-04-18T00:28:09.255Z,891.00
2024-04-18T00:29:09.313Z,898.00
2024-04-18T00:30:09.365Z,900.00
2024-04-18T00:31:09.431Z,890.00
2024-04-18T00:32:09.633Z,900.00
2024-04-18T00:33:09.632Z,891.00
2024-04-18T00:34:09.600Z,902.00
2024-04-18T00:35:09.707Z,882.00
2024-04-18T00:36:09.695Z,889.00
2024-04-18T00:37:09.730Z,895.00
2024-04-18T00:38:09.790Z,897.00
2024-04-18T00:39:09.961Z,899.00
2024-04-18T00:40:09.926Z,878.00
2024-04-18T00:41:09.995Z,888.00
2024-04-18T00:43:13.662Z,600.00
2024-04-18T00:44:13.665Z,600.00
2024-04-18T00:45:13.685Z,600.00
2024-04-18T00:46:13.683Z,600.00
2024-04-18T00:47:13.670Z,600.00
2024-04-18T00:48:13.886Z,602.00
2024-04-18T00:49:13.867Z,602.00
2024-04-18T00:50:13.675Z,602.00
2024-04-18T00:51:13.708Z,602.00
2024-04-18T00:52:13.670Z,600.00
2024-04-18T00:53:13.681Z,604.00
2024-04-18T00:54:13.695Z,605.00
2024-04-18T00:55:13.672Z,602.00
2024-04-18T00:56:16.780Z,600.00
2024-04-18T00:57:13.731Z,600.00
2024-04-18T00:58:13.780Z,601.00
2024-04-18T00:59:13.692Z,601.00
2024-04-18T01:00:13.734Z,603.00
2024-04-18T01:01:13.767Z,605.00
2024-04-18T01:02:13.694Z,603.00
2024-04-18T01:03:13.819Z,604.00
2024-04-18T01:04:13.815Z,606.00
2024-04-18T01:05:13.726Z,607.00
2024-04-18T01:06:13.742Z,605.00
2024-04-18T01:07:13.731Z,608.00
2024-04-18T01:08:13.704Z,602.00
2024-04-18T01:09:13.745Z,601.00
2024-04-18T01:10:13.739Z,602.00
2024-04-18T01:11:13.821Z,603.00
2024-04-18T01:12:13.720Z,603.00
2024-04-18T01:13:13.700Z,601.00
2024-04-18T01:14:13.693Z,602.00
2024-04-18T01:15:13.734Z,604.00
2024-04-18T01:16:13.697Z,606.00
2024-04-18T01:17:13.741Z,607.00
2024-04-18T01:18:13.914Z,608.00
2024-04-18T01:19:13.710Z,606.00
2024-04-18T01:20:13.704Z,602.00
2024-04-18T01:21:13.727Z,605.00
2024-04-18T01:22:13.719Z,606.00
2024-04-18T01:23:13.732Z,606.00
2024-04-18T01:24:13.722Z,603.00
2024-04-18T01:25:13.701Z,603.00
2024-04-18T01:26:13.716Z,603.00
2024-04-18T01:27:13.749Z,604.00
2024-04-18T01:28:13.767Z,605.00
2024-04-18T01:29:13.789Z,606.00
2024-04-18T01:30:13.856Z,601.00
2024-04-18T01:31:13.830Z,604.00
2024-04-18T01:32:13.843Z,602.00
2024-04-18T01:33:13.985Z,604.00
2024-04-18T01:34:13.980Z,607.00
2024-04-18T01:35:13.899Z,608.00
2024-04-18T01:36:13.933Z,604.00
2024-04-18T01:37:13.949Z,609.00
2024-04-18T01:38:13.975Z,607.00
2024-04-18T01:39:14.005Z,606.00
2024-04-18T01:40:14.023Z,601.00
2024-04-18T01:41:14.062Z,607.00
2024-04-18T01:42:14.125Z,601.00
2024-04-18T01:43:14.133Z,609.00
2024-04-18T01:44:14.156Z,605.00
2024-04-18T01:45:14.186Z,605.00
2024-04-18T01:46:14.170Z,609.00
2024-04-18T01:47:14.217Z,603.00
2024-04-18T01:48:14.401Z,602.00
2024-04-18T01:49:14.312Z,603.00
2024-04-18T01:50:14.248Z,605.00
2024-04-18T01:51:14.341Z,607.00
2024-04-18T01:52:14.315Z,605.00
2024-04-18T01:53:14.333Z,604.00
2024-04-18T01:54:14.409Z,606.00
2024-04-18T01:55:14.483Z,605.00
2024-04-18T01:56:14.439Z,603.00
2024-04-18T01:57:14.568Z,604.00
2024-04-18T01:58:14.422Z,604.00
2024-04-18T01:59:14.482Z,602.00
2024-04-18T02:00:14.537Z,604.00
2024-04-18T02:01:14.581Z,605.00
2024-04-18T02:02:14.518Z,605.00
2024-04-18T02:03:14.631Z,606.00
2024-04-18T02:04:14.674Z,605.00
2024-04-18T02:05:14.583Z,609.00
2024-04-18T02:06:14.720Z,607.00
2024-04-18T02:07:14.634Z,605.00
2024-04-18T02:08:14.680Z,600.00
2024-04-18T02:09:14.720Z,607.00
2024-04-18T02:10:14.713Z,602.00
2024-04-18T02:11:14.772Z,603.00
2024-04-18T02:12:14.844Z,600.00
2024-04-18T02:13:14.790Z,607.00
2024-04-18T02:14:14.821Z,604.00
2024-04-18T02:15:14.815Z,604.00
2024-04-18T02:16:14.825Z,602.00
2024-04-18T02:17:14.843Z,609.00
2024-04-18T02:18:14.969Z,603.00
2024-04-18T02:19:14.815Z,605.00
2024-04-18T02:20:14.845Z,607.00
2024-04-18T02:21:14.888Z,605.00
2024-04-18T02:22:14.917Z,606.00
2024-04-18T02:23:14.956Z,606.00
2024-04-18T02:24:14.965Z,600.00
2024-04-18T02:25:14.935Z,601.00
2024-04-18T02:26:14.940Z,605.00
2024-04-18T02:27:14.970Z,606.00
2024-04-18T02:28:14.946Z,607.00
2024-04-18T02:29:14.943Z,606.00
2024-04-18T02:30:14.984Z,607.00
2024-04-18T02:31:14.952Z,609.00
2024-04-18T02:32:15.020Z,602.00
2024-04-18T02:33:15.114Z,603.00
2024-04-18T02:34:14.966Z,608.00
2024-04-18T02:35:14.984Z,604.00
2024-04-18T02:36:15.004Z,603.00
2024-04-18T02:37:14.991Z,608.00
2024-04-18T02:38:15.004Z,608.00
2024-04-18T02:39:15.020Z,606.00
2024-04-18T02:40:15.000Z,609.00
2024-04-18T02:41:15.024Z,605.00
2024-04-18T02:42:15.056Z,607.00
2024-04-18T02:43:15.028Z,606.00
2024-04-18T02:44:15.039Z,602.00
2024-04-18T02:45:15.079Z,607.00
2024-04-18T02:46:15.055Z,601.00
2024-04-18T02:47:15.118Z,606.00
2024-04-18T02:48:15.087Z,603.00
2024-04-18T02:49:15.070Z,605.00
2024-04-18T02:50:15.068Z,602.00
2024-04-18T02:51:15.097Z,603.00
2024-04-18T02:52:15.088Z,603.00
2024-04-18T02:53:15.085Z,602.00
2024-04-18T02:54:15.121Z,604.00
2024-04-18T02:55:15.099Z,605.00
2024-04-18T02:56:15.110Z,606.00
2024-04-18T02:57:15.118Z,606.00
2024-04-18T02:58:15.121Z,605.00
2024-04-18T02:59:15.118Z,603.00
2024-04-18T03:00:15.186Z,605.00
2024-04-18T03:01:15.213Z,605.00
2024-04-18T03:02:15.171Z,607.00
2024-04-18T03:03:15.179Z,607.00
2024-04-18T03:04:15.232Z,608.00
2024-04-18T03:05:15.170Z,605.00
2024-04-18T03:06:15.202Z,608.00
2024-04-18T03:07:15.167Z,606.00
2024-04-18T03:08:15.187Z,609.00
2024-04-18T03:09:15.200Z,604.00
2024-04-18T03:10:15.180Z,603.00
2024-04-18T03:11:15.243Z,608.00
2024-04-18T03:12:15.214Z,608.00
2024-04-18T03:13:15.201Z,602.00
2024-04-18T03:14:15.210Z,606.00
2024-04-18T03:15:15.262Z,606.00
2024-04-18T03:16:15.217Z,604.00
2024-04-18T03:17:15.229Z,609.00
2024-04-18T03:18:15.425Z,602.00
2024-04-18T03:19:15.301Z,606.00
2024-04-18T03:20:15.213Z,605.00
2024-04-18T03:21:15.272Z,602.00
2024-04-18T03:22:15.264Z,603.00
2024-04-18T03:23:15.259Z,606.00
2024-04-18T03:24:15.256Z,605.00
2024-04-18T03:25:15.259Z,604.00
2024-04-18T03:26:15.277Z,604.00
2024-04-18T03:27:15.274Z,603.00
2024-04-18T03:28:15.262Z,608.00
2024-04-18T03:29:15.280Z,603.00
2024-04-18T03:30:15.307Z,606.00
2024-04-18T03:31:15.285Z,604.00
2024-04-18T03:32:15.327Z,606.00
2024-04-18T03:33:15.368Z,605.00
2024-04-18T03:34:15.279Z,605.00
2024-04-18T03:35:15.279Z,605.00
2024-04-18T03:36:15.326Z,605.00
2024-04-18T03:37:15.334Z,608.00
2024-04-18T03:38:15.295Z,606.00
2024-04-18T03:39:15.323Z,606.00
2024-04-18T03:40:15.324Z,603.00
2024-04-18T03:41:15.314Z,607.00
2024-04-18T03:42:15.363Z,607.00
2024-04-18T03:43:15.321Z,607.00
2024-04-18T03:44:15.328Z,608.00
2024-04-18T03:45:15.434Z,606.00
2024-04-18T03:46:15.364Z,608.00
2024-04-18T03:47:15.420Z,605.00
2024-04-18T03:48:15.399Z,605.00
2024-04-18T03:49:15.457Z,607.00
2024-04-18T03:50:15.393Z,605.00
2024-04-18T03:51:15.437Z,605.00
2024-04-18T03:52:15.396Z,601.00
2024-04-18T03:53:15.417Z,602.00
2024-04-18T03:54:15.456Z,607.00
2024-04-18T03:55:15.460Z,607.00
2024-04-18T03:56:15.439Z,606.00
2024-04-18T03:57:15.466Z,606.00
2024-04-18T03:58:15.471Z,606.00
2024-04-18T03:59:15.467Z,605.00
2024-04-18T04:00:15.531Z,607.00
2024-04-18T04:01:15.652Z,603.00
2024-04-18T04:02:15.535Z,605.00
2024-04-18T04:03:15.601Z,606.00
2024-04-18T04:04:15.562Z,606.00
2024-04-18T04:05:15.537Z,606.00
2024-04-18T04:06:15.572Z,607.00
2024-04-18T04:07:15.584Z,607.00
2024-04-18T04:08:15.569Z,607.00
2024-04-18T04:09:15.602Z,604.00
2024-04-18T04:10:15.630Z,605.00
2024-04-18T04:11:15.721Z,607.00
2024-04-18T04:12:15.636Z,601.00
2024-04-18T04:13:15.637Z,608.00
2024-04-18T04:14:15.641Z,605.00
2024-04-18T04:15:15.675Z,607.00
2024-04-18T04:16:15.678Z,606.00
2024-04-18T04:17:15.681Z,602.00
2024-04-18T04:18:15.835Z,606.00
2024-04-18T04:19:15.756Z,608.00
2024-04-18T04:20:15.722Z,607.00
2024-04-18T04:21:15.770Z,606.00
2024-04-18T04:22:15.748Z,606.00
2024-04-18T04:23:15.772Z,604.00
2024-04-18T04:24:15.789Z,607.00
2024-04-18T04:25:15.785Z,607.00
2024-04-18T04:26:15.831Z,608.00
2024-04-18T04:27:15.833Z,607.00
2024-04-18T04:28:15.827Z,606.00
2024-04-18T04:29:23.026Z,600.00
2024-04-18T04:30:23.027Z,600.00
2024-04-18T04:31:30.219Z,600.00
2024-04-18T04:32:30.403Z,600.00
2024-04-18T04:33:30.258Z,600.00
2024-04-18T04:34:30.193Z,600.00
2024-04-18T04:35:30.202Z,600.00
2024-04-18T04:36:30.262Z,602.00
2024-04-18T04:37:30.203Z,600.00
2024-04-18T04:38:30.191Z,604.00
2024-04-18T04:39:30.308Z,605.00
2024-04-18T04:40:30.205Z,600.00
2024-04-18T04:41:30.192Z,605.00
2024-04-18T04:42:30.228Z,604.00
2024-04-18T04:43:30.196Z,602.00
2024-04-18T04:44:30.202Z,603.00
2024-04-18T04:45:30.217Z,601.00
2024-04-18T04:46:30.219Z,604.00
2024-04-18T04:47:30.210Z,606.00
2024-04-18T04:48:32.159Z,604.00
2024-04-18T04:49:30.270Z,604.00
2024-04-18T04:50:30.212Z,605.00
2024-04-18T04:51:30.232Z,605.00
2024-04-18T04:52:30.210Z,605.00
2024-04-18T04:53:30.213Z,607.00
2024-04-18T04:54:30.268Z,604.00
2024-04-18T04:55:30.244Z,605.00
2024-04-18T04:56:30.216Z,608.00
2024-04-18T04:57:30.258Z,603.00
2024-04-18T04:58:30.239Z,604.00
2024-04-18T04:59:30.245Z,600.00
2024-04-18T05:00:30.269Z,601.00
2024-04-18T05:01:30.249Z,604.00
2024-04-18T05:02:30.359Z,604.00
2024-04-18T05:03:30.295Z,605.00
2024-04-18T05:04:30.284Z,604.00
2024-04-18T05:05:30.258Z,604.00
2024-04-18T05:06:30.268Z,605.00
2024-04-18T05:07:30.229Z,601.00
2024-04-18T05:08:30.255Z,606.00
2024-04-18T05:09:30.271Z,605.00
2024-04-18T05:10:30.246Z,606.00
2024-04-18T05:11:30.363Z,607.00
2024-04-18T05:12:30.285Z,604.00
2024-04-18T05:13:30.253Z,605.00
2024-04-18T05:14:30.283Z,604.00
2024-04-18T05:15:30.249Z,605.00
2024-04-18T05:16:30.299Z,605.00
2024-04-18T05:17:30.266Z,605.00
2024-04-18T05:18:30.292Z,607.00
2024-04-18T05:19:30.290Z,606.00
2024-04-18T05:20:30.258Z,600.00
2024-04-18T05:21:30.329Z,601.00
2024-04-18T05:22:30.267Z,600.00
2024-04-18T05:23:30.277Z,600.00
2024-04-18T05:24:30.315Z,600.00
2024-04-18T05:25:30.266Z,600.00
2024-04-18T05:26:30.289Z,598.00
2024-04-18T05:27:30.412Z,596.00
2024-04-18T05:28:30.271Z,600.00
2024-04-18T05:29:30.268Z,601.00
2024-04-18T05:30:30.302Z,604.00
2024-04-18T05:31:30.326Z,600.00
2024-04-18T05:32:30.438Z,600.00
2024-04-18T05:33:30.375Z,602.00
2024-04-18T05:34:30.329Z,607.00
2024-04-18T05:35:30.283Z,620.00
2024-04-18T05:36:30.358Z,632.00
2024-04-18T05:37:30.278Z,647.00
2024-04-18T05:38:30.280Z,659.00
2024-04-18T05:39:30.303Z,669.00
2024-04-18T05:40:30.318Z,703.00
2024-04-18T05:41:30.313Z,729.00
2024-04-18T05:42:30.343Z,747.00
2024-04-18T05:43:33.225Z,779.00
2024-04-18T05:44:30.308Z,780.00
2024-04-18T05:45:30.336Z,789.00
2024-04-18T05:46:30.332Z,822.00
2024-04-18T05:47:30.378Z,885.00
2024-04-18T05:48:30.354Z,986.00
2024-04-18T05:49:30.318Z,1029.00
2024-04-18T05:50:30.382Z,1062.00
2024-04-18T05:51:30.444Z,1110.00
2024-04-18T05:52:30.327Z,1146.00
2024-04-18T05:53:30.302Z,1171.00
2024-04-18T05:54:30.382Z,1191.00
2024-04-18T05:55:30.313Z,1225.00
2024-04-18T05:56:30.344Z,1247.00
2024-04-18T05:57:30.376Z,1252.00
2024-04-18T05:58:30.373Z,1267.00
2024-04-18T05:59:30.315Z,1276.00
2024-04-18T06:00:30.380Z,1307.00
2024-04-18T06:01:30.430Z,1311.00
2024-04-18T06:02:30.333Z,1330.00
2024-04-18T06:03:30.384Z,1350.00
2024-04-18T06:04:30.350Z,1367.00
2024-04-18T06:05:30.334Z,1373.00
2024-04-18T06:06:30.365Z,1396.00
2024-04-18T06:07:30.333Z,1411.00
2024-04-18T06:08:30.340Z,1410.00
2024-04-18T06:09:30.411Z,1426.00
2024-04-18T06:10:30.333Z,1438.00
2024-04-18T06:11:30.889Z,1454.00
2024-04-18T06:12:30.493Z,1456.00
2024-04-18T06:13:30.550Z,1467.00
2024-04-18T06:14:30.599Z,1484.00
2024-04-18T06:15:30.702Z,1489.00
2024-04-18T06:16:30.744Z,1493.00
2024-04-18T06:17:30.809Z,1509.00
2024-04-18T06:18:30.915Z,1515.00
2024-04-18T06:19:30.907Z,1515.00
2024-04-18T06:20:30.948Z,1536.00
2024-04-18T06:21:31.102Z,1531.00
2024-04-18T06:22:31.069Z,1549.00
2024-04-18T06:23:31.123Z,1573.00
2024-04-18T06:24:31.226Z,1575.00
2024-04-18T06:25:31.248Z,1586.00
2024-04-18T06:26:31.290Z,1582.00
2024-04-18T06:27:31.377Z,1595.00
2024-04-18T06:28:31.416Z,1589.00
2024-04-18T06:29:31.444Z,1599.00
2024-04-18T06:30:31.589Z,1608.00
2024-04-18T06:31:31.551Z,1620.00
2024-04-18T06:32:31.682Z,1624.00
2024-04-18T06:33:31.839Z,1623.00
2024-04-18T06:34:31.726Z,1606.00
2024-04-18T06:35:31.806Z,1613.00
2024-04-18T06:36:31.913Z,1641.00
2024-04-18T06:37:31.896Z,1615.00
2024-04-18T06:38:31.916Z,1573.00
2024-04-18T06:39:31.994Z,1555.00
2024-04-18T06:40:32.008Z,1525.00
2024-04-18T06:41:32.028Z,1528.00
2024-04-18T06:42:32.050Z,1545.00
2024-04-18T06:43:32.079Z,1555.00
2024-04-18T06:44:32.121Z,1559.00
2024-04-18T06:45:32.193Z,1578.00
2024-04-18T06:46:33.846Z,1595.00
2024-04-18T06:47:33.270Z,1596.00
2024-04-18T06:48:32.296Z,1602.00
2024-04-18T06:49:32.185Z,1617.00
2024-04-18T06:50:32.176Z,1635.00
2024-04-18T06:51:32.216Z,1685.00
2024-04-18T06:52:32.180Z,1698.00
2024-04-18T06:53:32.228Z,1715.00
2024-04-18T06:54:32.212Z,1739.00
2024-04-18T06:55:32.183Z,1747.00
2024-04-18T06:56:32.378Z,1770.00
2024-04-18T06:57:32.230Z,1777.00
2024-04-18T06:58:32.203Z,1795.00
2024-04-18T06:59:32.195Z,1816.00
2024-04-18T07:00:32.232Z,1834.00
2024-04-18T07:01:32.891Z,1843.00
2024-04-18T07:02:32.210Z,1861.00
2024-04-18T07:03:32.335Z,1860.00
2024-04-18T07:04:32.354Z,1883.00
2024-04-18T07:05:32.199Z,1867.00
2024-04-18T07:06:32.241Z,1789.00
2024-04-18T07:07:32.213Z,1736.00
2024-04-18T07:08:32.227Z,1744.00
2024-04-18T07:09:32.252Z,1729.00
2024-04-18T07:10:32.215Z,1694.00
2024-04-18T07:11:32.241Z,1676.00
2024-04-18T07:12:32.250Z,1644.00
2024-04-18T07:13:33.803Z,1642.00
2024-04-18T07:14:32.356Z,1648.00
2024-04-18T07:15:32.411Z,1643.00
2024-04-18T07:16:32.440Z,1644.00
2024-04-18T07:17:32.539Z,1646.00
2024-04-18T07:18:32.514Z,1650.00
2024-04-18T07:19:32.406Z,1652.00
2024-04-18T07:20:32.463Z,1631.00
2024-04-18T07:21:32.460Z,1618.00
2024-04-18T07:22:32.457Z,1624.00
2024-04-18T07:23:32.508Z,1635.00
2024-04-18T07:24:32.597Z,1636.00
2024-04-18T07:25:32.636Z,1635.00
2024-04-18T07:26:32.888Z,1646.00
2024-04-18T07:27:32.835Z,1666.00
2024-04-18T07:28:32.850Z,1660.00
2024-04-18T07:29:32.897Z,1671.00
2024-04-18T07:30:33.024Z,1677.00
2024-04-18T07:31:33.098Z,1647.00
2024-04-18T07:32:33.059Z,1584.00
2024-04-18T07:33:33.254Z,1565.00
2024-04-18T07:34:33.169Z,1516.00
2024-04-18T07:35:33.205Z,1477.00
2024-04-18T07:36:33.303Z,1483.00
2024-04-18T07:37:33.300Z,1443.00
2024-04-18T07:38:33.364Z,1428.00
2024-04-18T07:39:33.455Z,1412.00
2024-04-18T07:40:33.470Z,1387.00
2024-04-18T07:41:33.515Z,1366.00
2024-04-18T07:42:33.610Z,1351.00
2024-04-18T07:43:33.615Z,1329.00
2024-04-18T07:44:33.710Z,1314.00
2024-04-18T07:45:33.700Z,1319.00
2024-04-18T07:46:33.896Z,1311.00
2024-04-18T07:47:34.129Z,1303.00
2024-04-18T07:48:33.928Z,1285.00
2024-04-18T07:49:33.920Z,1270.00
2024-04-18T07:50:33.963Z,1278.00
2024-04-18T07:51:34.031Z,1281.00
2024-04-18T07:52:34.073Z,1266.00
2024-04-18T07:53:34.105Z,1266.00
2024-04-18T07:54:34.165Z,1243.00
2024-04-18T07:55:34.248Z,1248.00
2024-04-18T07:56:34.704Z,1236.00
2024-04-18T07:57:34.622Z,1242.00
2024-04-18T07:58:34.816Z,1234.00
2024-04-18T07:59:34.752Z,1221.00
2024-04-18T08:00:36.028Z,1216.00
2024-04-18T08:01:36.520Z,1202.00
2024-04-18T08:02:36.228Z,1187.00
2024-04-18T08:03:38.955Z,1191.00
2024-04-18T08:05:38.700Z,1192.00
2024-04-18T08:06:38.352Z,1192.00
2024-04-18T08:07:38.846Z,1192.00
2024-04-18T08:08:38.741Z,1192.00
2024-04-18T08:09:38.502Z,1191.00
2024-04-18T08:10:45.410Z,1191.00
2024-04-18T08:12:38.415Z,1191.00
2024-04-18T08:13:40.066Z,1191.00
2024-04-18T08:16:36.396Z,1191.00
2024-04-18T08:17:35.465Z,1192.00
2024-04-18T08:18:35.353Z,1175.00
2024-04-18T08:19:35.366Z,1166.00
2024-04-18T08:20:35.365Z,1164.00
2024-04-18T08:21:35.378Z,1159.00
2024-04-18T08:22:35.460Z,1158.00
2024-04-18T08:23:35.394Z,1149.00
2024-04-18T08:24:35.594Z,1121.00
2024-04-18T08:25:35.394Z,1112.00
2024-04-18T08:26:35.400Z,1082.00
2024-04-18T08:27:35.975Z,1030.00
2024-04-18T08:28:35.369Z,995.00
2024-04-18T08:29:35.403Z,958.00
2024-04-18T08:30:35.648Z,941.00
2024-04-18T08:31:35.560Z,949.00
2024-04-18T08:32:35.709Z,940.00
2024-04-18T08:33:35.731Z,888.00
2024-04-18T08:34:37.534Z,847.00
2024-04-18T08:35:35.729Z,765.00
2024-04-18T08:36:35.745Z,712.00
2024-04-18T08:37:35.720Z,661.00
2024-04-18T08:38:35.720Z,648.00
2024-04-18T08:39:35.750Z,641.00
2024-04-18T08:40:35.721Z,617.00
2024-04-18T08:41:39.227Z,607.00
2024-04-18T08:42:36.785Z,607.00
2024-04-18T08:43:35.722Z,587.00
2024-04-18T08:44:35.736Z,574.00
2024-04-18T08:45:36.303Z,571.00
2024-04-18T08:46:35.736Z,570.00
2024-04-18T08:47:37.696Z,607.00
2024-04-18T08:48:35.906Z,616.00
2024-04-18T08:49:35.784Z,626.00
2024-04-18T08:50:35.726Z,635.00
2024-04-18T08:51:35.841Z,654.00
2024-04-18T08:52:36.593Z,664.00
2024-04-18T08:53:35.748Z,703.00
2024-04-18T08:54:35.825Z,742.00
2024-04-18T08:55:35.727Z,777.00
2024-04-18T08:56:35.780Z,800.00
2024-04-18T08:57:35.847Z,834.00
2024-04-18T08:58:35.927Z,874.00
2024-04-18T08:59:35.999Z,893.00
2024-04-18T09:00:36.153Z,934.00
2024-04-18T09:01:36.104Z,948.00
2024-04-18T09:02:36.258Z,977.00
2024-04-18T09:03:36.251Z,1011.00
2024-04-18T09:04:36.495Z,1033.00
2024-04-18T09:05:36.957Z,1056.00
2024-04-18T09:06:36.457Z,1045.00
2024-04-18T09:07:36.468Z,998.00
2024-04-18T09:08:36.578Z,1008.00
2024-04-18T09:09:36.652Z,979.00
2024-04-18T09:10:36.665Z,978.00
2024-04-18T09:11:37.085Z,991.00
2024-04-18T09:12:36.907Z,989.00
2024-04-18T09:13:36.864Z,1018.00
2024-04-18T09:14:36.942Z,1007.00
2024-04-18T09:15:37.032Z,1023.00
2024-04-18T09:16:37.071Z,1053.00
2024-04-18T09:17:37.174Z,1072.00
2024-04-18T09:18:37.441Z,1090.00
2024-04-18T09:19:37.237Z,1109.00
2024-04-18T09:20:37.314Z,1139.00
2024-04-18T09:21:37.434Z,1160.00
2024-04-18T09:22:37.460Z,1174.00
2024-04-18T09:23:37.456Z,1184.00
2024-04-18T09:24:37.570Z,1180.00
2024-04-18T09:25:39.928Z,1198.00
2024-04-18T09:26:37.642Z,1224.00
2024-04-18T09:27:37.603Z,1243.00
2024-04-18T09:28:37.620Z,1242.00
2024-04-18T09:29:37.606Z,1189.00
2024-04-18T09:30:37.719Z,1133.00
2024-04-18T09:31:42.351Z,1106.00
2024-04-18T09:32:38.706Z,1097.00
2024-04-18T09:33:37.761Z,977.00
2024-04-18T09:34:37.643Z,876.00
2024-04-18T09:35:37.622Z,821.00
2024-04-18T09:36:37.655Z,757.00
2024-04-18T09:37:37.885Z,732.00
2024-04-18T09:38:37.613Z,710.00
2024-04-18T09:39:37.661Z,674.00
2024-04-18T09:40:37.625Z,659.00
2024-04-18T09:41:37.958Z,652.00
2024-04-18T09:42:37.673Z,642.00
2024-04-18T09:43:37.634Z,634.00
2024-04-18T09:44:37.634Z,629.00
2024-04-18T09:45:38.547Z,618.00
2024-04-18T09:46:37.938Z,612.00
2024-04-18T09:47:37.983Z,605.00
2024-04-18T09:48:37.754Z,601.00
2024-04-18T09:49:37.779Z,600.00
2024-04-18T09:50:37.750Z,602.00
2024-04-18T09:51:37.814Z,600.00
2024-04-18T09:52:37.938Z,602.00
2024-04-18T09:53:37.773Z,602.00
2024-04-18T09:54:37.850Z,600.00
2024-04-18T09:55:37.815Z,599.00
2024-04-18T09:56:37.931Z,603.00
2024-04-18T09:57:37.972Z,600.00
2024-04-18T09:58:37.917Z,603.00
2024-04-18T09:59:37.909Z,604.00
2024-04-18T10:00:37.995Z,604.00
2024-04-18T10:01:38.528Z,602.00
2024-04-18T10:02:38.471Z,602.00
2024-04-18T10:03:38.121Z,604.00
2024-04-18T10:04:38.104Z,602.00
2024-04-18T10:05:38.062Z,600.00
2024-04-18T10:06:38.222Z,601.00
2024-04-18T10:07:38.137Z,601.00
2024-04-18T10:08:38.154Z,604.00
2024-04-18T10:09:38.261Z,609.00
2024-04-18T10:10:38.215Z,605.00
2024-04-18T10:11:38.435Z,601.00
2024-04-18T10:12:38.286Z,604.00
2024-04-18T10:13:38.358Z,603.00
2024-04-18T10:14:38.348Z,600.00
2024-04-18T10:15:38.468Z,604.00
2024-04-18T10:16:38.423Z,600.00
2024-04-18T10:17:38.520Z,600.00
2024-04-18T10:18:38.709Z,601.00
2024-04-18T10:19:38.575Z,603.00
2024-04-18T10:20:38.537Z,601.00
2024-04-18T10:21:49.649Z,604.00
2024-04-18T10:22:46.594Z,605.00
2024-04-18T10:23:39.675Z,605.00
2024-04-18T10:24:38.800Z,613.00
2024-04-18T10:25:38.552Z,613.00
2024-04-18T10:26:38.566Z,610.00
2024-04-18T10:27:38.622Z,605.00
2024-04-18T10:28:38.566Z,613.00
2024-04-18T10:29:38.598Z,641.00
2024-04-18T10:30:38.573Z,656.00
2024-04-18T10:31:38.590Z,641.00
2024-04-18T10:32:38.643Z,648.00
2024-04-18T10:33:38.735Z,649.00
2024-04-18T10:34:38.579Z,657.00
2024-04-18T10:35:38.591Z,662.00
2024-04-18T10:36:39.310Z,672.00
2024-04-18T10:37:38.609Z,707.00
2024-04-18T10:38:38.650Z,723.00
2024-04-18T10:39:38.667Z,739.00
2024-04-18T10:40:38.591Z,773.00
2024-04-18T10:41:38.605Z,825.00
2024-04-18T10:42:38.699Z,859.00
2024-04-18T10:43:38.951Z,882.00
2024-04-18T10:44:38.619Z,897.00
2024-04-18T10:45:38.724Z,910.00
2024-04-18T10:46:38.618Z,937.00
2024-04-18T10:47:38.607Z,954.00
2024-04-18T10:48:38.768Z,986.00
2024-04-18T10:49:38.673Z,1020.00
2024-04-18T10:50:38.594Z,1050.00
2024-04-18T10:51:38.642Z,1072.00
2024-04-18T10:52:38.684Z,1119.00
2024-04-18T10:53:38.603Z,1150.00
2024-04-18T10:54:38.714Z,1180.00
2024-04-18T10:55:38.588Z,1204.00
2024-04-18T10:56:38.600Z,1252.00
2024-04-18T10:57:38.787Z,1274.00
2024-04-18T10:58:38.617Z,1296.00
2024-04-18T10:59:38.622Z,1324.00
2024-04-18T11:00:38.707Z,1340.00
2024-04-18T11:01:38.989Z,1340.00
2024-04-18T11:02:38.988Z,1363.00
2024-04-18T11:03:38.774Z,1387.00
2024-04-18T11:04:38.687Z,1388.00
2024-04-18T11:05:38.605Z,1389.00
2024-04-18T11:06:38.668Z,1408.00
2024-04-18T11:07:38.622Z,1423.00
2024-04-18T11:08:38.608Z,1447.00
2024-04-18T11:09:38.626Z,1470.00
2024-04-18T11:10:39.006Z,1489.00
2024-04-18T11:11:38.681Z,1502.00
2024-04-18T11:12:38.783Z,1509.00
2024-04-18T11:13:38.859Z,1514.00
2024-04-18T11:14:38.888Z,1518.00
2024-04-18T11:15:38.955Z,1531.00
2024-04-18T11:16:38.959Z,1608.00
2024-04-18T11:17:40.061Z,1618.00
2024-04-18T11:18:39.330Z,1608.00
2024-04-18T11:19:39.179Z,1626.00
2024-04-18T11:20:39.242Z,1648.00
2024-04-18T11:21:39.547Z,1642.00
2024-04-18T11:22:39.483Z,1656.00
2024-04-18T11:23:46.817Z,1667.00
2024-04-18T11:24:40.467Z,1668.00
2024-04-18T11:25:39.433Z,1671.00
2024-04-18T11:26:39.409Z,1685.00
2024-04-18T11:27:39.449Z,1703.00
2024-04-18T11:28:39.417Z,1727.00
2024-04-18T11:29:39.409Z,1737.00
2024-04-18T11:30:39.482Z,1734.00
2024-04-18T11:31:39.412Z,1740.00
2024-04-18T11:32:39.486Z,1738.00
2024-04-18T11:33:39.577Z,1738.00
2024-04-18T11:34:39.541Z,1748.00
2024-04-18T11:35:39.576Z,1739.00
2024-04-18T11:36:39.660Z,1751.00
2024-04-18T11:37:39.665Z,1743.00
2024-04-18T11:38:39.674Z,1735.00
2024-04-18T11:39:39.785Z,1742.00
2024-04-18T11:40:39.732Z,1752.00
2024-04-18T11:41:39.748Z,1727.00
2024-04-18T11:42:39.864Z,1726.00
2024-04-18T11:43:39.779Z,1723.00
2024-04-18T11:44:39.792Z,1722.00
2024-04-18T11:45:39.800Z,1717.00
2024-04-18T11:46:39.815Z,1706.00
2024-04-18T11:47:39.893Z,1714.00
2024-04-18T11:48:39.882Z,1714.00
2024-04-18T11:49:40.409Z,1702.00
2024-04-18T11:50:39.832Z,1706.00
2024-04-18T11:51:39.963Z,1704.00
2024-04-18T11:52:39.819Z,1699.00
2024-04-18T11:53:39.827Z,1701.00
2024-04-18T11:54:39.850Z,1703.00
2024-04-18T11:55:39.823Z,1687.00
2024-04-18T11:56:39.845Z,1686.00
2024-04-18T11:57:39.835Z,1692.00
2024-04-18T11:58:39.848Z,1680.00
2024-04-18T11:59:39.880Z,1681.00
2024-04-18T12:00:39.951Z,1690.00
2024-04-18T12:01:39.875Z,1674.00
2024-04-18T12:02:39.894Z,1669.00
2024-04-18T12:03:39.981Z,1673.00
2024-04-18T12:04:42.300Z,1667.00
2024-04-18T12:05:40.021Z,1671.00
2024-04-18T12:06:40.045Z,1664.00
2024-04-18T12:07:40.024Z,1664.00
2024-04-18T12:08:40.027Z,1663.00
2024-04-18T12:09:40.044Z,1655.00
2024-04-18T12:10:40.056Z,1654.00
2024-04-18T12:11:40.110Z,1640.00
2024-04-18T12:12:40.097Z,1625.00
2024-04-18T12:13:40.134Z,1619.00
2024-04-18T12:14:40.109Z,1621.00
2024-04-18T12:15:40.173Z,1611.00
2024-04-18T12:16:40.215Z,1610.00
2024-04-18T12:17:40.189Z,1640.00
2024-04-18T12:18:40.170Z,1674.00
2024-04-18T12:20:40.208Z,1809.00
2024-04-18T12:21:40.223Z,1815.00
2024-04-18T12:22:40.242Z,1799.00
2024-04-18T12:23:40.245Z,1788.00
2024-04-18T12:24:40.293Z,1812.00
2024-04-18T12:25:40.269Z,1818.00